createdAt,value
2018-08-20T00:02:03.135Z,55.10
2018-08-20T00:04:31.158Z,54.70
2018-08-20T00:06:59.023Z,54.70
2018-08-20T00:09:26.018Z,54.10
2018-08-20T00:11:53.078Z,53.70
2018-08-20T00:14:20.094Z,53.90
2018-08-20T00:16:47.105Z,54.30
2018-08-20T00:21:42.092Z,53.10
2018-08-20T00:24:09.091Z,53.60
2018-08-20T00:26:36.142Z,55.10
2018-08-20T00:31:39.631Z,58.60
2018-08-20T00:34:07.556Z,57.90
2018-08-20T00:36:34.557Z,56.50
2018-08-20T00:39:01.624Z,56.80
2018-08-20T00:41:28.656Z,56.30
2018-08-20T00:43:55.670Z,55.70
2018-08-20T00:46:22.707Z,55.20
2018-08-20T00:48:49.712Z,55.30
2018-08-20T00:51:16.724Z,55.20
2018-08-20T00:53:44.592Z,56.70
2018-08-20T00:56:12.508Z,57.70
2018-08-20T00:58:39.535Z,58.70
2018-08-20T01:01:06.572Z,59.90
2018-08-20T01:03:34.534Z,58.70
2018-08-20T01:06:01.536Z,58.90
2018-08-20T01:08:28.595Z,57.20
2018-08-20T01:13:23.567Z,54.20
2018-08-20T01:15:50.614Z,53.50
2018-08-20T01:18:17.620Z,53.10
2018-08-20T01:20:44.642Z,53.10
2018-08-20T01:25:38.789Z,54.00
2018-08-20T01:28:06.630Z,53.80
2018-08-20T01:30:33.671Z,53.50
2018-08-20T01:33:00.691Z,52.90
2018-08-20T01:37:54.843Z,52.90
2018-08-20T01:40:21.857Z,54.30
2018-08-20T01:42:48.863Z,55.00
2018-08-20T01:45:15.916Z,54.40
2018-08-20T01:47:42.916Z,55.50
2018-08-20T01:52:48.472Z,57.60
2018-08-20T01:55:15.470Z,58.30
2018-08-20T02:00:09.607Z,58.40
2018-08-20T02:02:36.610Z,63.80
2018-08-20T02:05:03.629Z,66.10
2018-08-20T02:07:31.576Z,67.00
2018-08-20T02:09:59.532Z,65.90
2018-08-20T02:12:27.363Z,67.30
2018-08-20T02:14:55.239Z,66.30
2018-08-20T02:17:22.229Z,66.50
2018-08-20T02:19:49.243Z,65.50
2018-08-20T02:22:16.285Z,66.20
2018-08-20T02:24:43.298Z,68.20
2018-08-20T02:27:10.310Z,71.10
2018-08-20T02:29:37.368Z,70.00
2018-08-20T02:32:04.358Z,70.80
2018-08-20T02:34:31.372Z,70.40
2018-08-20T02:39:26.233Z,71.50
2018-08-20T02:41:54.174Z,71.80
2018-08-20T02:44:22.047Z,73.20
2018-08-20T02:49:29.441Z,73.90
2018-08-20T02:51:57.318Z,74.80
2018-08-20T02:54:25.136Z,74.20
2018-08-20T02:56:52.189Z,73.40
2018-08-20T02:59:19.175Z,73.50
2018-08-20T03:01:46.178Z,73.80
2018-08-20T03:04:13.205Z,73.20
2018-08-20T03:06:40.200Z,74.10
2018-08-20T03:09:07.219Z,73.30
2018-08-20T03:11:34.251Z,74.50
2018-08-20T03:14:01.265Z,73.30
2018-08-20T03:16:28.345Z,73.00
2018-08-20T03:21:22.387Z,73.90
2018-08-20T03:23:50.215Z,74.70
2018-08-20T03:26:17.264Z,73.60
2018-08-20T03:28:44.273Z,73.70
2018-08-20T03:31:11.313Z,74.50
2018-08-20T03:33:39.183Z,74.20
2018-08-20T03:36:07.135Z,73.80
2018-08-20T03:38:34.125Z,74.00
2018-08-20T03:41:01.166Z,73.40
2018-08-20T03:43:28.182Z,74.00
2018-08-20T03:45:55.178Z,74.10
2018-08-20T03:48:22.251Z,74.00
2018-08-20T03:50:49.207Z,74.10
2018-08-20T03:53:17.204Z,74.10
2018-08-20T03:55:45.271Z,74.20
2018-08-20T03:58:12.288Z,74.50
2018-08-20T04:00:39.294Z,74.70
2018-08-20T04:03:06.324Z,74.50
2018-08-20T04:05:33.330Z,75.10
2018-08-20T04:08:00.358Z,75.20
2018-08-20T04:10:27.390Z,75.10
2018-08-20T04:15:35.798Z,74.60
2018-08-20T04:20:30.918Z,75.80
2018-08-20T04:22:57.907Z,75.60
2018-08-20T04:25:24.908Z,75.40
2018-08-20T04:27:51.925Z,75.40
2018-08-20T04:30:18.948Z,76.40
2018-08-20T04:32:46.778Z,77.80
2018-08-20T04:35:13.757Z,76.80
2018-08-20T04:37:40.784Z,76.50
2018-08-20T04:40:07.782Z,76.70
2018-08-20T04:42:34.905Z,76.40
2018-08-20T04:45:02.871Z,76.60
2018-08-20T04:47:30.802Z,76.40
2018-08-20T04:49:57.919Z,76.80
2018-08-20T04:52:24.866Z,77.40
2018-08-20T04:57:20.070Z,77.90
2018-08-20T04:59:47.093Z,78.20
2018-08-20T05:02:17.341Z,78.30
2018-08-20T05:04:43.246Z,79.00
2018-08-20T05:07:10.284Z,78.10
2018-08-20T05:09:37.315Z,78.40
2018-08-20T05:12:04.303Z,78.40
2018-08-20T05:14:31.353Z,78.10
2018-08-20T05:19:30.231Z,78.50
2018-08-20T05:21:55.426Z,78.20
2018-08-20T05:24:22.439Z,77.50
2018-08-20T05:26:49.485Z,77.20
2018-08-20T05:29:16.599Z,77.20
2018-08-20T05:31:44.501Z,77.20
2018-08-20T05:36:50.928Z,78.20
2018-08-20T05:39:17.914Z,78.50
2018-08-20T05:41:44.929Z,76.90
2018-08-20T05:44:11.975Z,77.30
2018-08-20T05:46:39.798Z,79.50
2018-08-20T05:49:06.794Z,79.90
2018-08-20T05:51:34.052Z,81.10
2018-08-20T05:56:39.559Z,81.70
2018-08-20T05:59:06.587Z,81.60
2018-08-20T06:01:33.552Z,80.70
2018-08-20T06:04:01.119Z,78.80
2018-08-20T06:06:30.150Z,77.70
2018-08-20T06:08:57.136Z,78.20
2018-08-20T06:11:24.304Z,78.80
2018-08-20T06:13:52.880Z,78.20
2018-08-20T06:16:19.868Z,78.00
2018-08-20T06:18:47.703Z,78.90
2018-08-20T06:21:14.729Z,78.90
2018-08-20T06:23:41.751Z,77.40
2018-08-20T06:26:08.799Z,76.70
2018-08-20T06:28:35.856Z,76.40
2018-08-20T06:31:02.805Z,77.00
2018-08-20T06:33:29.856Z,76.90
2018-08-20T06:35:56.932Z,77.90
2018-08-20T06:38:23.934Z,77.80
2018-08-20T06:40:50.944Z,76.00
2018-08-20T06:43:17.939Z,73.50
2018-08-20T06:45:44.928Z,72.80
2018-08-20T06:48:11.963Z,73.90
2018-08-20T06:50:38.963Z,70.30
2018-08-20T06:53:05.980Z,67.50
2018-08-20T06:55:33.009Z,69.60
2018-08-20T06:58:00.529Z,67.70
2018-08-20T07:00:27.548Z,69.80
2018-08-20T07:02:54.597Z,65.50
2018-08-20T07:05:21.608Z,69.90
2018-08-20T07:07:48.631Z,66.10
2018-08-20T07:10:16.625Z,69.80
2018-08-20T07:15:22.139Z,64.70
2018-08-20T07:17:49.966Z,63.90
2018-08-20T07:20:17.401Z,65.70
2018-08-20T07:22:45.084Z,61.30
2018-08-20T07:25:12.024Z,57.40
2018-08-20T07:27:40.452Z,56.70
2018-08-20T07:30:07.408Z,57.50
2018-08-20T07:32:34.408Z,62.70
2018-08-20T07:35:01.993Z,59.80
2018-08-20T07:37:29.710Z,56.60
2018-08-20T07:39:57.571Z,52.70
2018-08-20T07:42:24.632Z,51.60
2018-08-20T07:44:51.628Z,50.50
2018-08-20T07:47:19.219Z,54.50
2018-08-20T07:49:46.236Z,52.20
2018-08-20T07:54:41.198Z,53.30
2018-08-20T07:57:08.190Z,49.80
2018-08-20T07:59:35.242Z,47.50
2018-08-20T08:02:03.097Z,49.10
2018-08-20T08:04:30.185Z,48.40
2018-08-20T08:06:57.244Z,50.70
2018-08-20T08:09:25.290Z,48.00
2018-08-20T08:19:14.927Z,46.50
2018-08-20T08:21:42.944Z,44.70
2018-08-20T08:24:09.938Z,43.90
2018-08-20T08:26:36.939Z,43.30
2018-08-20T08:29:03.965Z,44.90
2018-08-20T08:34:12.397Z,39.50
2018-08-20T08:36:39.391Z,39.00
2018-08-20T08:39:06.393Z,35.40
2018-08-20T08:41:33.964Z,34.40
2018-08-20T08:44:01.922Z,33.90
2018-08-20T08:48:56.063Z,28.70
2018-08-20T08:51:23.054Z,26.00
2018-08-20T08:53:50.082Z,25.50
2018-08-20T08:56:17.108Z,22.10
2018-08-20T08:58:44.122Z,21.20
2018-08-20T09:01:11.177Z,21.60
2018-08-20T09:03:38.495Z,19.90
2018-08-20T09:08:32.630Z,19.10
2018-08-20T09:10:59.668Z,18.20
2018-08-20T09:13:26.671Z,18.50
2018-08-20T09:15:53.680Z,17.80
2018-08-20T09:18:20.721Z,18.10
2018-08-20T09:20:48.671Z,17.40
2018-08-20T09:23:15.678Z,16.10
2018-08-20T09:25:42.724Z,16.20
2018-08-20T09:28:09.750Z,15.50
2018-08-20T09:30:36.753Z,16.10
2018-08-20T09:33:03.801Z,16.30
2018-08-20T09:35:30.808Z,16.20
2018-08-20T09:40:25.077Z,16.00
2018-08-20T09:42:52.800Z,15.40
2018-08-20T09:47:58.309Z,13.70
2018-08-20T09:50:25.337Z,15.00
2018-08-20T09:52:53.160Z,12.60
2018-08-20T09:55:20.193Z,13.30
2018-08-20T09:57:47.909Z,12.10
2018-08-20T10:00:14.928Z,11.20
2018-08-20T10:02:43.307Z,12.20
2018-08-20T10:05:10.307Z,10.10
2018-08-20T10:07:37.298Z,9.50
2018-08-20T10:10:05.187Z,10.20
2018-08-20T10:12:33.086Z,9.60
2018-08-20T10:17:27.211Z,9.60
2018-08-20T10:19:55.084Z,10.40
2018-08-20T10:22:22.077Z,9.70
2018-08-20T10:24:49.938Z,8.50
2018-08-20T10:27:16.949Z,9.20
2018-08-20T10:29:43.956Z,9.50
2018-08-20T10:32:11.463Z,8.90
2018-08-20T10:34:38.397Z,7.90
2018-08-20T10:37:05.402Z,7.70
2018-08-20T10:39:32.435Z,8.10
2018-08-20T10:41:59.782Z,8.50
2018-08-20T10:44:26.788Z,8.60
2018-08-20T10:46:53.838Z,9.20
2018-08-20T10:49:20.854Z,8.30
2018-08-20T10:51:47.854Z,7.30
2018-08-20T10:54:14.894Z,6.90
2018-08-20T10:56:41.883Z,6.50
2018-08-20T10:59:10.964Z,6.40
2018-08-20T11:01:36.912Z,6.90
2018-08-20T11:04:04.792Z,6.00
2018-08-20T11:09:13.305Z,6.10
2018-08-20T11:11:40.275Z,4.60
2018-08-20T11:14:07.279Z,5.00
2018-08-20T11:16:35.297Z,5.20
2018-08-20T11:19:02.313Z,5.40
2018-08-20T11:21:29.321Z,4.10
2018-08-20T11:23:56.371Z,3.70
2018-08-20T11:28:50.491Z,3.10
2018-08-20T11:31:17.538Z,3.30
2018-08-20T11:33:44.551Z,4.30
2018-08-20T11:36:11.552Z,4.70
2018-08-20T11:38:38.599Z,3.20
2018-08-20T11:41:06.418Z,3.70
2018-08-20T11:43:33.437Z,4.70
2018-08-20T11:46:00.489Z,3.90
2018-08-20T11:48:27.511Z,4.50
2018-08-20T11:50:55.468Z,5.70
2018-08-20T11:53:22.525Z,4.60
2018-08-20T11:55:49.550Z,1.10
2018-08-20T11:58:16.551Z,1.50
2018-08-20T12:00:44.558Z,3.30
2018-08-20T12:03:14.848Z,2.90
2018-08-20T12:05:42.590Z,3.40
2018-08-20T12:08:09.650Z,2.20
2018-08-20T12:15:43.581Z,2.30
2018-08-20T12:18:10.602Z,2.30
2018-08-20T12:23:46.704Z,1.00
2018-08-20T12:26:13.719Z,1.00
2018-08-20T12:28:40.738Z,1.00
2018-08-20T12:31:07.797Z,1.00
2018-08-20T12:33:38.659Z,1.80
2018-08-20T12:36:05.684Z,2.90
2018-08-20T12:38:33.734Z,2.20
2018-08-20T12:41:01.737Z,2.30
2018-08-20T12:43:29.304Z,1.20
2018-08-20T12:45:57.278Z,1.90
2018-08-20T12:48:24.297Z,1.10
2018-08-20T12:50:52.053Z,1.00
2018-08-20T13:01:32.853Z,1.00
2018-08-20T13:03:59.903Z,1.00
2018-08-20T13:06:26.935Z,1.00
2018-08-20T13:08:53.978Z,1.00
2018-08-20T13:13:49.132Z,3.60
2018-08-20T13:16:16.205Z,4.30
2018-08-20T13:18:43.213Z,6.30
2018-08-20T13:21:10.250Z,6.70
2018-08-20T13:23:37.252Z,5.60
2018-08-20T13:26:04.326Z,5.40
2018-08-20T13:28:31.330Z,5.80
2018-08-20T13:30:58.346Z,6.60
2018-08-20T13:33:25.405Z,6.70
2018-08-20T13:35:52.420Z,5.60
2018-08-20T13:38:19.430Z,4.90
2018-08-20T13:40:47.386Z,4.90
2018-08-20T13:43:14.410Z,5.20
2018-08-20T13:45:41.415Z,5.10
2018-08-20T13:48:08.484Z,4.90
2018-08-20T13:50:36.233Z,5.40
2018-08-20T13:53:03.248Z,4.60
2018-08-20T13:55:30.290Z,4.80
2018-08-20T13:57:58.272Z,4.60
2018-08-20T14:00:26.269Z,3.80
2018-08-20T14:02:55.524Z,3.50
2018-08-20T14:05:22.585Z,4.00
2018-08-20T14:07:49.616Z,4.90
2018-08-20T14:13:06.710Z,4.20
2018-08-20T14:15:42.631Z,4.00
2018-08-20T14:18:10.100Z,4.80
2018-08-20T14:20:37.685Z,5.40
2018-08-20T14:23:05.303Z,6.10
2018-08-20T14:25:33.244Z,6.60
2018-08-20T14:28:03.063Z,8.90
2018-08-20T14:30:28.687Z,9.00
2018-08-20T14:32:55.648Z,8.30
2018-08-20T14:35:22.647Z,7.90
2018-08-20T14:37:50.526Z,6.80
2018-08-20T14:40:17.525Z,7.70
2018-08-20T14:42:44.517Z,9.20
2018-08-20T14:45:12.365Z,10.80
2018-08-20T14:47:39.398Z,10.40
2018-08-20T14:50:06.373Z,10.40
2018-08-20T14:52:33.411Z,9.30
2018-08-20T14:55:01.389Z,7.70
2018-08-20T14:57:28.403Z,8.50
2018-08-20T15:04:49.653Z,9.30
2018-08-20T15:07:16.703Z,9.30
2018-08-20T15:09:43.747Z,9.70
2018-08-20T15:12:10.751Z,10.60
2018-08-20T15:14:37.797Z,10.40
2018-08-20T15:17:04.789Z,9.50
2018-08-20T15:19:31.784Z,8.30
2018-08-20T15:21:58.827Z,8.60
2018-08-20T15:24:25.837Z,7.60
2018-08-20T15:26:52.849Z,7.30
2018-08-20T15:29:19.896Z,7.50
2018-08-20T15:34:27.410Z,6.40
2018-08-20T15:36:54.416Z,7.60
2018-08-20T15:39:22.364Z,8.30
2018-08-20T15:41:49.375Z,7.20
2018-08-20T15:44:17.254Z,6.90
2018-08-20T15:46:44.319Z,7.90
2018-08-20T15:49:11.357Z,7.80
2018-08-20T15:51:39.206Z,8.60
2018-08-20T15:54:07.163Z,8.20
2018-08-20T15:56:34.184Z,8.90
2018-08-20T15:59:02.037Z,8.70
2018-08-20T16:01:29.058Z,8.40
2018-08-20T16:03:56.989Z,9.40
2018-08-20T16:06:24.004Z,9.00
2018-08-20T16:08:51.996Z,8.20
2018-08-20T16:11:19.472Z,8.90
2018-08-20T16:13:46.485Z,8.70
2018-08-20T16:16:14.320Z,8.80
2018-08-20T16:18:41.376Z,8.70
2018-08-20T16:21:08.371Z,8.90
2018-08-20T16:23:35.371Z,8.70
2018-08-20T16:26:03.379Z,8.90
2018-08-20T16:28:30.401Z,9.00
2018-08-20T16:33:37.611Z,9.20
2018-08-20T16:36:04.614Z,9.50
2018-08-20T16:38:31.627Z,9.60
2018-08-20T16:40:58.669Z,9.40
2018-08-20T16:43:25.704Z,9.60
2018-08-20T16:45:52.720Z,9.50
2018-08-20T16:48:20.717Z,9.70
2018-08-20T16:50:47.699Z,9.70
2018-08-20T16:53:14.795Z,9.60
2018-08-20T16:58:10.774Z,9.60
2018-08-20T17:00:38.692Z,9.80
2018-08-20T17:03:06.597Z,10.10
2018-08-20T17:05:33.666Z,10.50
2018-08-20T17:08:01.498Z,10.50
2018-08-20T17:10:28.567Z,11.30
2018-08-20T17:12:55.569Z,10.80
2018-08-20T17:15:22.585Z,10.70
2018-08-20T17:17:49.641Z,10.70
2018-08-20T17:20:16.662Z,10.90
2018-08-20T17:22:43.674Z,11.00
2018-08-20T17:25:11.591Z,10.70
2018-08-20T17:27:38.604Z,10.40
2018-08-20T17:30:06.383Z,10.60
2018-08-20T17:32:33.429Z,10.80
2018-08-20T17:37:41.926Z,10.30
2018-08-20T17:40:08.933Z,10.70
2018-08-20T17:42:36.967Z,10.70
2018-08-20T17:45:04.803Z,10.70
2018-08-20T17:47:31.831Z,11.00
2018-08-20T17:49:58.864Z,11.20
2018-08-20T17:54:53.048Z,11.50
2018-08-20T17:57:20.070Z,11.90
2018-08-20T17:59:47.115Z,11.40
2018-08-20T18:02:14.115Z,11.00
2018-08-20T18:04:41.126Z,11.30
2018-08-20T18:07:09.668Z,11.20
2018-08-20T18:09:37.663Z,11.40
2018-08-20T18:12:04.677Z,11.70
2018-08-20T18:14:31.907Z,11.40
2018-08-20T18:16:59.728Z,11.60
2018-08-20T18:19:27.399Z,11.70
2018-08-20T18:24:21.648Z,11.60
2018-08-20T18:26:53.662Z,11.30
2018-08-20T18:29:20.900Z,12.50
2018-08-20T18:31:48.461Z,11.90
2018-08-20T18:34:16.694Z,11.00
2018-08-20T18:36:44.604Z,11.40
2018-08-20T18:39:11.630Z,12.60
2018-08-20T18:44:19.089Z,12.40
2018-08-20T18:46:47.056Z,12.80
2018-08-20T18:49:14.539Z,13.00
2018-08-20T18:51:42.126Z,13.00
2018-08-20T18:54:10.051Z,12.90
2018-08-20T18:56:37.954Z,12.90
2018-08-20T18:59:05.325Z,13.00
2018-08-20T19:01:32.346Z,12.60
2018-08-20T19:03:59.361Z,13.30
2018-08-20T19:06:26.412Z,13.50
2018-08-20T19:08:54.317Z,13.50
2018-08-20T19:11:21.348Z,13.80
2018-08-20T19:13:48.938Z,14.20
2018-08-20T19:18:43.582Z,14.20
2018-08-20T19:21:12.362Z,14.00
2018-08-20T19:23:39.438Z,13.90
2018-08-20T19:26:06.469Z,14.10
2018-08-20T19:28:34.625Z,14.20
2018-08-20T19:33:43.522Z,14.80
2018-08-20T19:36:10.636Z,15.10
2018-08-20T19:38:37.611Z,15.20
2018-08-20T19:43:31.726Z,15.40
2018-08-20T19:45:58.816Z,15.50
2018-08-20T19:48:25.838Z,15.80
2018-08-20T19:50:52.870Z,15.40
2018-08-20T19:55:58.849Z,15.40
2018-08-20T19:58:25.939Z,15.90
2018-08-20T20:00:52.902Z,16.40
2018-08-20T20:03:20.558Z,16.00
2018-08-20T20:05:47.587Z,16.20
2018-08-20T20:08:14.638Z,16.10
2018-08-20T20:10:41.705Z,16.60
2018-08-20T20:13:08.733Z,16.60
2018-08-20T20:15:35.799Z,16.80
2018-08-20T20:18:02.804Z,16.60
2018-08-20T20:20:29.794Z,16.40
2018-08-20T20:22:56.861Z,16.50
2018-08-20T20:25:24.708Z,16.20
2018-08-20T20:27:51.484Z,16.90
2018-08-20T20:30:18.552Z,17.50
2018-08-20T20:32:45.578Z,17.00
2018-08-20T20:35:13.812Z,17.30
2018-08-20T20:37:40.713Z,17.30
2018-08-20T20:40:07.762Z,17.80
2018-08-20T20:42:34.891Z,17.50
2018-08-20T20:45:02.609Z,17.30
2018-08-20T20:49:57.176Z,17.90
2018-08-20T20:52:24.302Z,18.50
2018-08-20T20:54:51.911Z,18.50
2018-08-20T20:57:19.443Z,18.20
2018-08-20T20:59:46.753Z,18.60
2018-08-20T21:02:13.749Z,18.30
2018-08-20T21:04:40.747Z,18.60
2018-08-20T21:07:07.789Z,18.80
2018-08-20T21:09:34.840Z,19.10
2018-08-20T21:12:02.629Z,19.30
2018-08-20T21:14:29.399Z,19.30
2018-08-20T21:19:37.637Z,19.10
2018-08-20T21:22:04.657Z,19.60
2018-08-20T21:24:31.684Z,19.50
2018-08-20T21:26:58.731Z,19.50
2018-08-20T21:29:26.377Z,19.70
2018-08-20T21:31:54.076Z,19.90
2018-08-20T21:34:21.208Z,19.80
2018-08-20T21:36:48.233Z,20.20
2018-08-20T21:39:15.243Z,20.30
2018-08-20T21:41:42.291Z,20.10
2018-08-20T21:44:09.386Z,19.80
2018-08-20T21:46:36.400Z,19.50
2018-08-20T21:49:04.114Z,19.70
2018-08-20T21:51:30.992Z,20.60
2018-08-20T21:53:58.028Z,20.50
2018-08-20T21:56:25.082Z,20.50
2018-08-20T21:58:52.108Z,21.10
2018-08-20T22:03:47.423Z,21.30
2018-08-20T22:06:15.127Z,21.80
2018-08-20T22:08:42.136Z,21.90
2018-08-20T22:11:10.456Z,21.00
2018-08-20T22:13:37.465Z,21.30
2018-08-20T22:16:04.721Z,22.00
2018-08-20T22:18:31.746Z,21.90
2018-08-20T22:25:52.874Z,22.10
2018-08-20T22:33:31.299Z,22.00
2018-08-20T22:35:58.295Z,22.20
2018-08-20T22:38:28.273Z,22.00
2018-08-20T22:40:55.903Z,21.70
2018-08-20T22:43:22.909Z,21.60
2018-08-20T22:45:50.746Z,22.70
2018-08-20T22:48:19.255Z,22.60
2018-08-20T22:50:47.079Z,23.50
2018-08-20T22:53:15.056Z,23.40
2018-08-20T22:55:43.034Z,23.60
2018-08-20T22:58:10.881Z,24.50
2018-08-20T23:00:38.821Z,23.80
2018-08-20T23:03:05.859Z,24.20
2018-08-20T23:05:32.846Z,24.30
2018-08-20T23:07:59.851Z,23.80
2018-08-20T23:10:27.712Z,24.00
2018-08-20T23:12:54.717Z,24.70
2018-08-20T23:15:21.708Z,24.60
2018-08-20T23:17:48.750Z,25.50
2018-08-20T23:20:16.521Z,25.70
2018-08-20T23:22:43.954Z,26.80
2018-08-20T23:25:10.573Z,26.30
2018-08-20T23:27:37.574Z,26.60
2018-08-20T23:30:04.586Z,27.70
2018-08-20T23:32:31.609Z,28.00
2018-08-20T23:34:58.622Z,27.20
2018-08-20T23:37:25.612Z,27.00
2018-08-20T23:39:52.654Z,27.80
2018-08-20T23:42:19.665Z,28.20
2018-08-20T23:49:42.693Z,26.90
2018-08-20T23:54:50.129Z,27.40
2018-08-20T23:57:17.146Z,27.60
2018-08-20T23:59:45.098Z,27.80
